createdAt,value
2017-01-28T00:01:35.091Z,958.45
2017-01-28T00:03:47.342Z,958.43
2017-01-28T00:05:54.658Z,958.45
2017-01-28T00:08:06.935Z,958.43
2017-01-28T00:10:14.241Z,958.4
2017-01-28T00:12:26.454Z,958.39
2017-01-28T00:14:38.757Z,958.26
2017-01-28T00:16:50.917Z,958.25
2017-01-28T00:18:58.229Z,958.27
2017-01-28T00:21:10.510Z,958.25
2017-01-28T00:23:23.369Z,958.27
2017-01-28T00:25:37.299Z,958.34
2017-01-28T00:27:49.626Z,958.34
2017-01-28T00:29:56.910Z,958.32
2017-01-28T00:32:10.217Z,958.34
2017-01-28T00:34:22.518Z,958.35
2017-01-28T00:36:35.980Z,958.34
2017-01-28T00:38:48.357Z,958.29
2017-01-28T00:41:00.543Z,958.29
2017-01-28T00:43:12.722Z,958.29
2017-01-28T00:45:19.873Z,958.26
2017-01-28T00:47:32.105Z,958.34
2017-01-28T00:49:44.255Z,958.37
2017-01-28T00:51:56.633Z,958.36
2017-01-28T00:54:08.845Z,958.33
2017-01-28T00:56:21.260Z,958.35
2017-01-28T00:58:33.672Z,958.34
2017-01-28T01:00:46.037Z,958.35
2017-01-28T01:02:58.494Z,958.34
2017-01-28T01:05:20.656Z,958.34
2017-01-28T01:07:32.861Z,958.36
2017-01-28T01:09:45.175Z,958.35
2017-01-28T01:12:09.861Z,958.32
2017-01-28T01:14:27.966Z,958.3
2017-01-28T01:16:40.505Z,958.29
2017-01-28T01:19:02.236Z,958.27
2017-01-28T01:21:19.716Z,958.28
2017-01-28T01:23:32.404Z,958.26
2017-01-28T01:25:39.588Z,958.27
2017-01-28T01:27:51.859Z,958.31
2017-01-28T01:30:07.921Z,958.28
2017-01-28T01:32:20.483Z,958.31
2017-01-28T01:34:33.177Z,958.31
2017-01-28T01:36:46.665Z,958.3
2017-01-28T01:38:58.894Z,958.28
2017-01-28T01:41:11.174Z,958.3
2017-01-28T01:43:26.143Z,958.28
2017-01-28T01:45:38.791Z,958.25
2017-01-28T01:47:46.262Z,958.23
2017-01-28T01:49:58.473Z,958.24
2017-01-28T01:52:10.641Z,958.23
2017-01-28T01:54:23.028Z,958.24
2017-01-28T01:56:33.430Z,958.22
2017-01-28T01:58:45.822Z,958.21
2017-01-28T02:00:58.114Z,958.2
2017-01-28T02:03:10.425Z,958.19
2017-01-28T02:05:23.206Z,958.19
2017-01-28T02:07:30.652Z,958.22
2017-01-28T02:09:43.070Z,958.18
2017-01-28T02:11:55.437Z,958.22
2017-01-28T02:14:07.583Z,958.18
2017-01-28T02:16:20.196Z,958.09
2017-01-28T02:18:32.443Z,958.16
2017-01-28T02:20:44.721Z,958.14
2017-01-28T02:22:57.089Z,958.09
2017-01-28T02:25:09.445Z,958.05
2017-01-28T02:27:11.845Z,958.02
2017-01-28T02:29:24.166Z,958.05
2017-01-28T02:31:36.603Z,958.06
2017-01-28T02:33:43.805Z,958.07
2017-01-28T02:35:51.077Z,958.08
2017-01-28T02:38:03.455Z,958.09
2017-01-28T02:40:16.217Z,958.09
2017-01-28T02:42:29.201Z,958.07
2017-01-28T02:44:36.587Z,958.09
2017-01-28T02:46:49.103Z,957.99
2017-01-28T02:49:01.486Z,958.03
2017-01-28T02:51:13.733Z,958.1
2017-01-28T02:53:26.025Z,958.13
2017-01-28T02:55:38.208Z,958.12
2017-01-28T02:57:50.382Z,958.13
2017-01-28T03:00:02.659Z,958.16
2017-01-28T03:02:15.057Z,958.15
2017-01-28T03:04:22.468Z,958.16
2017-01-28T03:06:29.682Z,958.15
2017-01-28T03:08:41.845Z,958.13
2017-01-28T03:10:54.240Z,958.11
2017-01-28T03:13:06.496Z,958.12
2017-01-28T03:15:19.066Z,958.09
2017-01-28T03:17:31.743Z,958.1
2017-01-28T03:19:44.095Z,958.09
2017-01-28T03:21:56.435Z,958.11
2017-01-28T03:24:08.762Z,958.17
2017-01-28T03:26:16.032Z,958.23
2017-01-28T03:28:23.329Z,958.22
2017-01-28T03:30:35.579Z,958.23
2017-01-28T03:32:47.992Z,958.25
2017-01-28T03:35:00.194Z,958.22
2017-01-28T03:37:12.695Z,958.26
2017-01-28T03:39:24.837Z,958.23
2017-01-28T03:41:37.068Z,958.22
2017-01-28T03:43:49.390Z,958.21
2017-01-28T03:46:01.692Z,958.12
2017-01-28T03:48:14.097Z,958.18
2017-01-28T03:50:26.840Z,958.24
2017-01-28T03:52:39.367Z,958.21
2017-01-28T03:54:51.959Z,958.16
2017-01-28T03:57:04.147Z,958.23
2017-01-28T03:59:16.332Z,958.28
2017-01-28T04:01:28.584Z,958.17
2017-01-28T04:03:41.645Z,958.17
2017-01-28T04:05:48.987Z,958.25
2017-01-28T04:07:56.391Z,958.18
2017-01-28T04:10:08.865Z,958.25
2017-01-28T04:12:21.192Z,958.29
2017-01-28T04:14:33.327Z,958.18
2017-01-28T04:16:45.525Z,958.24
2017-01-28T04:18:57.830Z,958.25
2017-01-28T04:21:10.023Z,958.27
2017-01-28T04:23:22.341Z,958.24
2017-01-28T04:25:34.598Z,958.3
2017-01-28T04:27:47.365Z,958.19
2017-01-28T04:29:54.987Z,958.18
2017-01-28T04:32:07.324Z,958.26
2017-01-28T04:34:19.521Z,958.24
2017-01-28T04:36:26.888Z,958.29
2017-01-28T04:38:39.178Z,958.24
2017-01-28T04:40:51.595Z,958.25
2017-01-28T04:43:03.904Z,958.26
2017-01-28T04:45:11.172Z,958.24
2017-01-28T04:47:23.413Z,958.31
2017-01-28T04:49:35.651Z,958.32
2017-01-28T04:51:47.978Z,958.29
2017-01-28T04:54:00.555Z,958.22
2017-01-28T04:56:12.671Z,958.23
2017-01-28T04:58:24.805Z,958.28
2017-01-28T05:00:36.979Z,958.28
2017-01-28T05:02:49.470Z,958.35
2017-01-28T05:05:02.016Z,958.28
2017-01-28T05:07:14.407Z,958.31
2017-01-28T05:09:26.599Z,958.34
2017-01-28T05:11:38.799Z,958.38
2017-01-28T05:13:51.143Z,958.39
2017-01-28T05:16:03.407Z,958.4
2017-01-28T05:18:15.722Z,958.39
2017-01-28T05:20:28.029Z,958.35
2017-01-28T05:22:40.380Z,958.38
2017-01-28T05:24:52.636Z,958.36
2017-01-28T05:27:04.886Z,958.36
2017-01-28T05:29:17.065Z,958.4
2017-01-28T05:31:29.234Z,958.36
2017-01-28T05:33:41.623Z,958.42
2017-01-28T05:35:53.916Z,958.42
2017-01-28T05:38:06.707Z,958.45
2017-01-28T05:40:19.230Z,958.39
2017-01-28T05:42:31.466Z,958.48
2017-01-28T05:44:43.884Z,958.5
2017-01-28T05:46:56.155Z,958.4
2017-01-28T05:49:03.776Z,958.46
2017-01-28T05:51:16.213Z,958.46
2017-01-28T05:53:28.418Z,958.48
2017-01-28T05:55:40.661Z,958.44
2017-01-28T05:57:52.859Z,958.42
2017-01-28T06:00:00.314Z,958.5
2017-01-28T06:02:12.638Z,958.54
2017-01-28T06:04:24.801Z,958.54
2017-01-28T06:06:36.964Z,958.56
2017-01-28T06:08:49.246Z,958.51
2017-01-28T06:11:01.664Z,958.45
2017-01-28T06:13:09.481Z,958.42
2017-01-28T06:15:22.107Z,958.39
2017-01-28T06:17:29.359Z,958.39
2017-01-28T06:19:39.911Z,958.41
2017-01-28T06:21:52.725Z,958.4
2017-01-28T06:24:05.133Z,958.4
2017-01-28T06:26:12.465Z,958.49
2017-01-28T06:28:24.984Z,958.51
2017-01-28T06:30:37.441Z,958.51
2017-01-28T06:32:49.982Z,958.57
2017-01-28T06:35:02.303Z,958.57
2017-01-28T06:37:14.646Z,958.61
2017-01-28T06:39:26.973Z,958.62
2017-01-28T06:41:39.208Z,958.64
2017-01-28T06:43:51.381Z,958.65
2017-01-28T06:46:03.601Z,958.67
2017-01-28T06:48:16.274Z,958.66
2017-01-28T06:50:29.053Z,958.66
2017-01-28T06:52:41.479Z,958.67
2017-01-28T06:54:53.843Z,958.65
2017-01-28T06:57:06.044Z,958.72
2017-01-28T06:59:18.449Z,958.71
2017-01-28T07:01:25.687Z,958.83
2017-01-28T07:03:37.996Z,958.75
2017-01-28T07:05:50.197Z,958.84
2017-01-28T07:08:02.401Z,958.82
2017-01-28T07:10:04.609Z,958.82
2017-01-28T07:12:16.991Z,958.84
2017-01-28T07:14:29.322Z,958.8
2017-01-28T07:16:41.693Z,958.89
2017-01-28T07:18:53.898Z,958.92
2017-01-28T07:21:01.087Z,958.89
2017-01-28T07:23:08.758Z,958.86
2017-01-28T07:25:21.297Z,958.89
2017-01-28T07:27:31.924Z,958.9
2017-01-28T07:29:44.422Z,958.9
2017-01-28T07:31:56.740Z,958.75
2017-01-28T07:34:09.195Z,958.9
2017-01-28T07:36:16.461Z,958.72
2017-01-28T07:38:28.774Z,958.87
2017-01-28T07:40:41.054Z,958.76
2017-01-28T07:42:53.242Z,958.96
2017-01-28T07:45:00.450Z,958.87
2017-01-28T07:47:12.663Z,958.83
2017-01-28T07:49:24.869Z,958.96
2017-01-28T07:51:32.209Z,958.83
2017-01-28T07:53:44.559Z,959.01
2017-01-28T07:55:56.846Z,958.95
2017-01-28T07:58:09.161Z,958.9
2017-01-28T08:00:21.491Z,958.94
2017-01-28T08:02:28.837Z,958.87
2017-01-28T08:04:41.107Z,958.91
2017-01-28T08:06:53.521Z,958.93
2017-01-28T08:09:05.996Z,958.96
2017-01-28T08:11:13.445Z,958.88
2017-01-28T08:13:25.818Z,958.86
2017-01-28T08:15:38.282Z,958.91
2017-01-28T08:17:45.667Z,958.86
2017-01-28T08:19:58.203Z,958.84
2017-01-28T08:22:10.708Z,958.82
2017-01-28T08:24:23.057Z,958.85
2017-01-28T08:26:35.442Z,958.88
2017-01-28T08:28:47.700Z,958.88
2017-01-28T08:30:59.961Z,958.88
2017-01-28T08:33:07.607Z,958.85
2017-01-28T08:35:20.175Z,958.87
2017-01-28T08:37:32.418Z,958.85
2017-01-28T08:39:39.815Z,958.78
2017-01-28T08:41:52.195Z,958.84
2017-01-28T08:44:04.433Z,958.84
2017-01-28T08:46:12.078Z,958.87
2017-01-28T08:48:19.936Z,958.85
2017-01-28T08:50:32.516Z,958.79
2017-01-28T08:52:39.716Z,958.83
2017-01-28T08:54:52.102Z,958.81
2017-01-28T08:56:54.747Z,958.84
2017-01-28T08:59:07.012Z,958.88
2017-01-28T09:01:14.499Z,958.87
2017-01-28T09:03:26.796Z,958.88
2017-01-28T09:05:39.622Z,958.86
2017-01-28T09:07:52.186Z,958.84
2017-01-28T09:10:00.496Z,958.83
2017-01-28T09:12:13.079Z,958.83
2017-01-28T09:14:25.944Z,958.87
2017-01-28T09:16:38.468Z,958.89
2017-01-28T09:18:51.652Z,958.78
2017-01-28T09:21:05.163Z,958.84
2017-01-28T09:23:18.874Z,958.86
2017-01-28T09:25:31.610Z,958.92
2017-01-28T09:27:48.974Z,958.92
2017-01-28T09:30:01.427Z,958.96
2017-01-28T09:32:13.616Z,958.82
2017-01-28T09:34:25.897Z,958.75
2017-01-28T09:36:38.135Z,958.69
2017-01-28T09:38:50.593Z,958.69
2017-01-28T09:41:02.906Z,958.62
2017-01-28T09:43:15.702Z,958.59
2017-01-28T09:45:28.442Z,958.63
2017-01-28T09:47:40.826Z,958.64
2017-01-28T09:49:53.084Z,958.66
2017-01-28T09:52:05.554Z,958.66
2017-01-28T09:54:12.845Z,958.58
2017-01-28T09:56:25.204Z,958.67
2017-01-28T09:58:37.597Z,958.6
2017-01-28T10:00:49.993Z,958.64
2017-01-28T10:03:02.318Z,958.52
2017-01-28T10:05:14.590Z,958.52
2017-01-28T10:07:25.357Z,958.48
2017-01-28T10:09:37.610Z,958.52
2017-01-28T10:11:49.910Z,958.52
2017-01-28T10:14:02.097Z,958.49
2017-01-28T10:16:14.664Z,958.48
2017-01-28T10:18:27.329Z,958.5
2017-01-28T10:20:39.882Z,958.39
2017-01-28T10:22:52.489Z,958.45
2017-01-28T10:24:59.793Z,958.48
2017-01-28T10:27:12.492Z,958.45
2017-01-28T10:29:24.981Z,958.37
2017-01-28T10:31:37.379Z,958.4
2017-01-28T10:33:49.568Z,958.37
2017-01-28T10:36:01.975Z,958.33
2017-01-28T10:38:14.410Z,958.32
2017-01-28T10:40:26.952Z,958.33
2017-01-28T10:42:34.160Z,958.29
2017-01-28T10:44:47.898Z,958.31
2017-01-28T10:46:55.983Z,958.24
2017-01-28T10:49:10.448Z,958.25
2017-01-28T10:51:26.525Z,958.16
2017-01-28T10:53:35.345Z,958.16
2017-01-28T10:55:49.536Z,958.18
2017-01-28T10:58:02.043Z,958.18
2017-01-28T11:00:15.756Z,958.12
2017-01-28T11:02:30.109Z,958.15
2017-01-28T11:04:43.604Z,958.12
2017-01-28T11:06:58.159Z,958.1
2017-01-28T11:09:12.112Z,958.13
2017-01-28T11:11:27.619Z,958.1
2017-01-28T11:13:42.906Z,958.05
2017-01-28T11:15:57.266Z,958.06
2017-01-28T11:18:12.195Z,957.99
2017-01-28T11:20:31.064Z,958.03
2017-01-28T11:22:45.648Z,957.99
2017-01-28T11:24:57.879Z,957.99
2017-01-28T11:27:07.716Z,958
2017-01-28T11:29:21.158Z,957.98
2017-01-28T11:31:36.113Z,957.95
2017-01-28T11:33:49.313Z,957.94
2017-01-28T11:36:01.548Z,957.93
2017-01-28T11:38:13.816Z,957.9
2017-01-28T11:40:26.116Z,957.84
2017-01-28T11:42:38.394Z,957.83
2017-01-28T11:44:52.623Z,957.83
2017-01-28T11:47:05.413Z,957.84
2017-01-28T11:49:18.268Z,957.8
2017-01-28T11:51:31.143Z,957.77
2017-01-28T11:53:43.388Z,957.78
2017-01-28T11:55:55.990Z,957.68
2017-01-28T11:58:08.380Z,957.66
2017-01-28T12:00:15.813Z,957.61
2017-01-28T12:02:28.311Z,957.58
2017-01-28T12:04:41.106Z,957.57
2017-01-28T12:06:48.503Z,957.57
2017-01-28T12:09:00.861Z,957.52
2017-01-28T12:11:13.521Z,957.5
2017-01-28T12:13:25.835Z,957.56
2017-01-28T12:15:38.214Z,957.54
2017-01-28T12:17:50.681Z,957.49
2017-01-28T12:19:58.203Z,957.46
2017-01-28T12:22:05.512Z,957.5
2017-01-28T12:24:17.731Z,957.57
2017-01-28T12:28:35.781Z,957.53
2017-01-28T12:30:48.143Z,957.52
2017-01-28T12:33:00.591Z,957.5
2017-01-28T12:35:12.886Z,957.53
2017-01-28T12:37:25.090Z,957.52
2017-01-28T12:39:37.588Z,957.48
2017-01-28T12:41:50.050Z,957.48
2017-01-28T12:44:02.439Z,957.48
2017-01-28T12:46:14.798Z,957.4
2017-01-28T12:48:27.059Z,957.38
2017-01-28T12:50:33.284Z,957.36
2017-01-28T12:52:45.808Z,957.33
2017-01-28T12:54:52.967Z,957.39
2017-01-28T12:57:05.486Z,957.4
2017-01-28T12:59:17.865Z,957.38
2017-01-28T13:01:25.334Z,957.35
2017-01-28T13:03:37.763Z,957.35
2017-01-28T13:05:50.173Z,957.44
2017-01-28T13:08:02.374Z,957.36
2017-01-28T13:10:14.968Z,957.41
2017-01-28T13:12:27.437Z,957.44
2017-01-28T13:14:40.072Z,957.38
2017-01-28T13:16:52.534Z,957.43
2017-01-28T13:18:54.877Z,957.4
2017-01-28T13:21:07.181Z,957.41
2017-01-28T13:23:19.540Z,957.42
2017-01-28T13:25:31.852Z,957.37
2017-01-28T13:27:39.306Z,957.39
2017-01-28T13:29:46.670Z,957.37
2017-01-28T13:31:54.036Z,957.36
2017-01-28T13:34:06.407Z,957.4
2017-01-28T13:36:18.725Z,957.38
2017-01-28T13:38:25.995Z,957.42
2017-01-28T13:40:33.371Z,957.43
2017-01-28T13:42:45.725Z,957.45
2017-01-28T13:44:53.118Z,957.43
2017-01-28T13:47:05.789Z,957.45
2017-01-28T13:49:18.572Z,957.42
2017-01-28T13:51:25.887Z,957.45
2017-01-28T13:53:38.068Z,957.48
2017-01-28T13:55:45.375Z,957.43
2017-01-28T13:57:57.727Z,957.49
2017-01-28T14:00:10.125Z,957.45
2017-01-28T14:02:17.343Z,957.42
2017-01-28T14:04:29.800Z,957.46
2017-01-28T14:06:41.997Z,957.47
2017-01-28T14:08:54.491Z,957.42
2017-01-28T14:11:07.048Z,957.49
2017-01-28T14:13:19.466Z,957.45
2017-01-28T14:15:31.723Z,957.44
2017-01-28T14:17:44.105Z,957.48
2017-01-28T14:19:56.373Z,957.58
2017-01-28T14:22:08.800Z,957.59
2017-01-28T14:24:19.472Z,957.65
2017-01-28T14:26:31.706Z,957.57
2017-01-28T14:28:38.954Z,957.61
2017-01-28T14:30:51.241Z,957.69
2017-01-28T14:32:58.466Z,957.72
2017-01-28T14:35:10.978Z,957.75
2017-01-28T14:37:18.490Z,957.7
2017-01-28T14:39:30.964Z,957.57
2017-01-28T14:41:43.325Z,957.63
2017-01-28T14:43:48.843Z,957.65
2017-01-28T14:46:01.211Z,957.79
2017-01-28T14:48:01.880Z,957.81
2017-01-28T14:50:14.355Z,957.78
2017-01-28T14:52:26.657Z,957.8
2017-01-28T14:54:39.033Z,957.81
2017-01-28T14:56:51.871Z,957.83
2017-01-28T14:59:04.032Z,957.85
2017-01-28T15:01:16.428Z,957.88
2017-01-28T15:03:28.846Z,957.96
2017-01-28T15:05:41.304Z,957.95
2017-01-28T15:07:53.565Z,957.91
2017-01-28T15:10:05.705Z,957.96
2017-01-28T15:12:17.918Z,957.98
2017-01-28T15:14:30.279Z,958.04
2017-01-28T15:16:37.720Z,958.04
2017-01-28T15:18:50.028Z,958.1
2017-01-28T15:21:02.214Z,958.14
2017-01-28T15:23:14.450Z,958.17
2017-01-28T15:25:27.015Z,958.27
2017-01-28T15:27:39.636Z,958.28
2017-01-28T15:29:50.570Z,958.27
2017-01-28T15:32:01.341Z,958.27
2017-01-28T15:34:13.737Z,958.29
2017-01-28T15:36:26.214Z,958.31
2017-01-28T15:38:38.433Z,958.34
2017-01-28T15:40:51.043Z,958.37
2017-01-28T15:43:03.392Z,958.42
2017-01-28T15:45:15.828Z,958.44
2017-01-28T15:47:28.047Z,958.48
2017-01-28T15:49:40.587Z,958.45
2017-01-28T15:51:53.005Z,958.53
2017-01-28T15:54:05.426Z,958.57
2017-01-28T15:56:12.718Z,958.61
2017-01-28T15:58:25.032Z,958.71
2017-01-28T16:00:37.218Z,958.77
2017-01-28T16:02:49.573Z,958.72
2017-01-28T16:05:02.096Z,958.75
2017-01-28T16:07:14.570Z,958.73
2017-01-28T16:09:26.833Z,958.75
2017-01-28T16:11:39.307Z,958.82
2017-01-28T16:13:46.762Z,958.86
2017-01-28T16:15:59.149Z,958.86
2017-01-28T16:18:11.983Z,958.84
2017-01-28T16:20:24.159Z,958.92
2017-01-28T16:22:31.400Z,958.9
2017-01-28T16:24:43.758Z,958.93
2017-01-28T16:26:56.191Z,958.9
2017-01-28T16:29:08.690Z,958.96
2017-01-28T16:31:21.114Z,958.97
2017-01-28T16:33:33.562Z,959.03
2017-01-28T16:35:45.930Z,959.02
2017-01-28T16:37:58.245Z,959.02
2017-01-28T16:40:10.733Z,959.08
2017-01-28T16:42:23.097Z,959.1
2017-01-28T16:44:35.257Z,959.15
2017-01-28T16:46:47.517Z,959.2
2017-01-28T16:48:59.874Z,959.2
2017-01-28T16:51:12.494Z,959.19
2017-01-28T16:53:24.727Z,959.18
2017-01-28T16:55:37.083Z,959.21
2017-01-28T16:57:49.305Z,959.16
2017-01-28T16:59:51.550Z,959.17
2017-01-28T17:02:03.970Z,959.18
2017-01-28T17:04:16.405Z,959.25
2017-01-28T17:06:28.604Z,959.28
2017-01-28T17:08:40.858Z,959.33
2017-01-28T17:10:53.063Z,959.31
2017-01-28T17:13:05.434Z,959.32
2017-01-28T17:15:18.061Z,959.31
2017-01-28T17:17:30.526Z,959.33
2017-01-28T17:19:42.783Z,959.37
2017-01-28T17:21:55.030Z,959.43
2017-01-28T17:24:07.516Z,959.44
2017-01-28T17:26:19.890Z,959.44
2017-01-28T17:28:32.319Z,959.44
2017-01-28T17:30:44.717Z,959.57
2017-01-28T17:32:56.919Z,959.56
2017-01-28T17:35:09.389Z,959.54
2017-01-28T17:37:21.697Z,959.6
2017-01-28T17:39:29.079Z,959.57
2017-01-28T17:41:41.583Z,959.59
2017-01-28T17:43:53.838Z,959.64
2017-01-28T17:46:01.053Z,959.58
2017-01-28T17:48:13.435Z,959.62
2017-01-28T17:50:25.667Z,959.58
2017-01-28T17:52:39.326Z,959.6
2017-01-28T17:54:51.879Z,959.59
2017-01-28T17:57:04.243Z,959.55
2017-01-28T17:59:16.531Z,959.61
2017-01-28T18:01:28.821Z,959.68
2017-01-28T18:03:41.134Z,959.69
2017-01-28T18:05:53.439Z,959.68
2017-01-28T18:08:05.751Z,959.68
2017-01-28T18:10:18.033Z,959.73
2017-01-28T18:12:30.435Z,959.68
2017-01-28T18:14:42.656Z,959.73
2017-01-28T18:16:55.115Z,959.69
2017-01-28T18:19:07.497Z,959.66
2017-01-28T18:21:19.676Z,959.7
2017-01-28T18:23:32.252Z,959.68
2017-01-28T18:25:44.945Z,959.67
2017-01-28T18:27:57.411Z,959.74
2017-01-28T18:30:09.986Z,959.77
2017-01-28T18:32:12.355Z,959.77
2017-01-28T18:34:24.776Z,959.77
2017-01-28T18:36:37.212Z,959.73
2017-01-28T18:38:44.375Z,959.67
2017-01-28T18:40:56.826Z,959.67
2017-01-28T18:43:09.208Z,959.65
2017-01-28T18:45:19.953Z,959.67
2017-01-28T18:47:27.308Z,959.73
2017-01-28T18:49:39.477Z,959.76
2017-01-28T18:51:51.807Z,959.88
2017-01-28T18:54:03.993Z,959.89
2017-01-28T18:56:16.428Z,959.88
2017-01-28T18:58:28.695Z,959.93
2017-01-28T19:00:41.017Z,959.99
2017-01-28T19:02:53.585Z,959.94
2017-01-28T19:05:00.916Z,959.91
2017-01-28T19:07:13.325Z,959.96
2017-01-28T19:09:25.779Z,959.91
2017-01-28T19:11:38.333Z,959.99
2017-01-28T19:13:50.553Z,960.01
2017-01-28T19:16:02.864Z,960.02
2017-01-28T19:18:10.665Z,960.06
2017-01-28T19:20:22.937Z,960.07
2017-01-28T19:22:30.210Z,960
2017-01-28T19:24:42.628Z,960
2017-01-28T19:26:54.820Z,959.97
2017-01-28T19:29:07.025Z,959.97
2017-01-28T19:31:14.494Z,959.92
2017-01-28T19:33:26.832Z,959.89
2017-01-28T19:35:43.608Z,959.91
2017-01-28T19:37:56.056Z,959.98
2017-01-28T19:40:08.525Z,960.05
2017-01-28T19:42:22.337Z,959.99
2017-01-28T19:44:34.679Z,959.99
2017-01-28T19:46:47.089Z,960.03
2017-01-28T19:48:59.395Z,959.98
2017-01-28T19:51:12.071Z,960.03
2017-01-28T19:53:24.404Z,960.06
2017-01-28T19:55:36.655Z,960.05
2017-01-28T19:57:44.107Z,960.08
2017-01-28T19:59:56.348Z,960.08
2017-01-28T20:02:03.861Z,960.12
2017-01-28T20:04:16.374Z,960.12
2017-01-28T20:06:23.741Z,960.09
2017-01-28T20:08:36.137Z,960.1
2017-01-28T20:10:48.426Z,960.16
2017-01-28T20:12:55.716Z,960.23
2017-01-28T20:15:08.318Z,960.24
2017-01-28T20:17:20.556Z,960.18
2017-01-28T20:19:32.984Z,960.17
2017-01-28T20:21:45.432Z,960.17
2017-01-28T20:23:57.819Z,960.19
2017-01-28T20:26:10.008Z,960.22
2017-01-28T20:28:22.488Z,960.22
2017-01-28T20:30:29.928Z,960.23
2017-01-28T20:32:42.264Z,960.27
2017-01-28T20:34:49.618Z,960.24
2017-01-28T20:37:02.054Z,960.28
2017-01-28T20:39:12.873Z,960.25
2017-01-28T20:41:20.256Z,960.27
2017-01-28T20:43:32.482Z,960.28
2017-01-28T20:45:44.816Z,960.35
2017-01-28T20:47:57.509Z,960.36
2017-01-28T20:50:05.020Z,960.4
2017-01-28T20:52:12.446Z,960.36
2017-01-28T20:54:19.732Z,960.41
2017-01-28T20:56:32.092Z,960.39
2017-01-28T20:58:44.364Z,960.39
2017-01-28T21:00:56.764Z,960.36
2017-01-28T21:03:09.191Z,960.39
2017-01-28T21:05:21.587Z,960.36
2017-01-28T21:07:34.082Z,960.36
2017-01-28T21:09:46.392Z,960.39
2017-01-28T21:11:58.725Z,960.43
2017-01-28T21:14:06.243Z,960.47
2017-01-28T21:16:18.499Z,960.46
2017-01-28T21:18:25.957Z,960.55
2017-01-28T21:20:38.507Z,960.46
2017-01-28T21:22:45.851Z,960.48
2017-01-28T21:24:53.329Z,960.52
2017-01-28T21:27:05.578Z,960.48
2017-01-28T21:29:17.954Z,960.44
2017-01-28T21:31:30.481Z,960.46
2017-01-28T21:33:42.888Z,960.44
2017-01-28T21:35:55.470Z,960.46
2017-01-28T21:38:08.297Z,960.47
2017-01-28T21:40:20.787Z,960.49
2017-01-28T21:42:33.304Z,960.47
2017-01-28T21:44:45.562Z,960.44
2017-01-28T21:46:52.980Z,960.47
2017-01-28T21:49:05.482Z,960.42
2017-01-28T21:51:18.559Z,960.4
2017-01-28T21:53:29.644Z,960.45
2017-01-28T21:55:42.092Z,960.41
2017-01-28T21:57:54.939Z,960.41
2017-01-28T21:59:57.945Z,960.36
2017-01-28T22:02:10.461Z,960.31
2017-01-28T22:04:23.121Z,960.27
2017-01-28T22:06:30.367Z,960.28
2017-01-28T22:08:42.895Z,960.28
2017-01-28T22:10:55.231Z,960.34
2017-01-28T22:13:02.470Z,960.29
2017-01-28T22:15:14.874Z,960.32
2017-01-28T22:17:27.234Z,960.32
2017-01-28T22:19:39.854Z,960.3
2017-01-28T22:21:52.236Z,960.27
2017-01-28T22:24:04.437Z,960.27
2017-01-28T22:26:16.909Z,960.27
2017-01-28T22:28:29.454Z,960.27
2017-01-28T22:30:41.896Z,960.26
2017-01-28T22:32:54.661Z,960.23
2017-01-28T22:35:07.457Z,960.23
2017-01-28T22:37:15.138Z,960.27
2017-01-28T22:39:27.383Z,960.27
2017-01-28T22:41:39.772Z,960.29
2017-01-28T22:43:46.986Z,960.29
2017-01-28T22:45:59.297Z,960.29
2017-01-28T22:48:11.537Z,960.27
2017-01-28T22:50:23.994Z,960.24
2017-01-28T22:52:36.293Z,960.31
2017-01-28T22:54:43.575Z,960.32
2017-01-28T22:56:51.085Z,960.35
2017-01-28T22:59:03.630Z,960.32
2017-01-28T23:01:16.142Z,960.37
2017-01-28T23:03:28.525Z,960.4
2017-01-28T23:05:40.953Z,960.43
2017-01-28T23:07:53.483Z,960.44
2017-01-28T23:10:06.212Z,960.51
2017-01-28T23:12:18.751Z,960.51
2017-01-28T23:14:30.968Z,960.52
2017-01-28T23:16:43.147Z,960.58
2017-01-28T23:18:55.386Z,960.55
2017-01-28T23:21:07.660Z,960.59
2017-01-28T23:23:20.116Z,960.64
2017-01-28T23:25:30.654Z,960.54
2017-01-28T23:27:43.055Z,960.6
2017-01-28T23:29:55.375Z,960.55
2017-01-28T23:32:07.849Z,960.56
2017-01-28T23:34:10.152Z,960.61
2017-01-28T23:36:22.596Z,960.67
2017-01-28T23:38:34.956Z,960.66
2017-01-28T23:40:47.218Z,960.63
2017-01-28T23:42:59.985Z,960.62
2017-01-28T23:45:12.610Z,960.64
2017-01-28T23:47:24.987Z,960.66
2017-01-28T23:49:37.272Z,960.66
2017-01-28T23:51:49.622Z,960.62
2017-01-28T23:54:02.070Z,960.64
2017-01-28T23:56:14.317Z,960.63
2017-01-28T23:58:26.567Z,960.61
